Terminal Aerodrome Forecast
Issued by NWS

Home | Current Version | Previous Version | Text Only | Print | Product List | Glossary On
Versions: 1 2 3 4 5 6 7 8 9 10 11 12 13 14 15 16 17 18 19 20 21 22
716
FTUS43 KEAX 261605 AAB
TAFMKC
TAF AMD
KMKC 261605Z 2616/2712 19010KT P6SM SCT035 BKN100
      TEMPO 2616/2617 4SM TSRA BR BKN035CB
     FM262000 17012G20KT P6SM VCTS BKN040CB
      TEMPO 2700/2704 3SM -TSRA BKN025CB=

USA.gov is the U.S. government's official web portal to all federal, state and local government web resources and services.